Flight Track Log - Related Links

Times and Time Zones

All times are in EDT time to prevent confusion due to time zone crossing. See the UCA4846 flight status page for this flight to view local times or setup timezone preferences in your user account.

Time Position Orientation Groundspeed Altitude Reporting Facility
EDT Latitude Longitude Course Direction KTS MPH feet Rate Location/Type
Thu 12:32:00 PM 40.9511 -74.6601 305° West  Level Estimated
Thu 12:33:00 PM 40.9879 -74.7307 305° West  Level Estimated
Thu 12:34:00 PM 41.0247 -74.8012 305° West  Level Estimated
Thu 12:35:00 PM 41.0614 -74.8719 305° West  Level Estimated
Thu 12:36:00 PM 41.0980 -74.9427 305° West  Level Estimated
Thu 12:37:00 PM 41.1346 -75.0135 304° West  Level Estimated
Thu 12:38:00 PM 41.1712 -75.0844 304° West  Level Estimated
Thu 12:39:00 PM 41.2077 -75.1554 304° West  Level Estimated
Thu 12:40:00 PM 41.2442 -75.2265 304° West  Level Estimated
Thu 12:41:00 PM 41.2806 -75.2977 304° West  Level Estimated
Thu 12:42:00 PM 41.3170 -75.3689 304° West  Level Estimated
Thu 12:43:00 PM 41.3533 -75.4402 304° West  Level Estimated
Thu 12:44:00 PM 41.3896 -75.5116 304° West  Level Estimated
Thu 12:45:00 PM 41.4259 -75.5831 304° West  Level Estimated
Thu 12:46:00 PM 41.4621 -75.6546 304° West  Level Estimated
Thu 12:47:00 PM 41.4983 -75.7263 304° West  Level Estimated
Thu 12:48:00 PM 41.5344 -75.7980 304° West  Level Estimated
Thu 12:49:00 PM 41.5705 -75.8698 304° West  Level Estimated
Thu 12:50:00 PM 41.6065 -75.9416 304° West  Level Estimated
Thu 12:51:00 PM 41.6425 -76.0136 304° West  Level Estimated
Thu 12:52:00 PM 41.6784 -76.0856 304° West  Level Estimated
Thu 12:53:00 PM 41.7143 -76.1577 304° West  Level Estimated
Thu 12:54:00 PM 41.7502 -76.2299 304° West  Level Estimated
Thu 12:55:00 PM 41.7860 -76.3022 304° West  Level Estimated
Thu 12:56:00 PM 41.8218 -76.3745 304° West  Level Estimated
Thu 12:57:00 PM 41.8575 -76.4470 304° West  Level Estimated
Thu 12:58:00 PM 41.8932 -76.5195 303° West  Level Estimated
Thu 12:59:00 PM 41.9288 -76.5921 303° West  Level Estimated
Thu 01:00:00 PM 41.9644 -76.6648 303° West  Level Estimated
Thu 01:01:00 PM 41.9999 -76.7375 303° West  Level Estimated
Thu 01:02:00 PM 42.0354 -76.8104 303° West  Level Estimated
Thu 01:03:00 PM 42.0708 -76.8833 303° West  Level Estimated
Thu 01:04:00 PM 42.1062 -76.9563 303° West  Level Estimated
Thu 01:05:00 PM 42.1416 -77.0294 303° West  Level Estimated
Thu 01:06:00 PM 42.1769 -77.1026 303° West  Level Estimated
Thu 01:07:00 PM 42.2121 -77.1758 303° West  Level Estimated
Thu 01:08:00 PM 42.2473 -77.2492 303° West  Level Estimated
Thu 01:09:00 PM 42.2825 -77.3226 303° West  Level Estimated
Thu 01:10:00 PM 42.3176 -77.3961 303° West  Level Estimated
Thu 01:11:00 PM 42.3527 -77.4697 303° West  Level Estimated
Thu 01:12:00 PM 42.3877 -77.5433 303° West  Level Estimated
Thu 01:13:00 PM 42.4227 -77.6171 303° West  Level Estimated
Thu 01:14:00 PM 42.4576 -77.6909 303° West  Level Estimated
Thu 01:15:00 PM 42.4925 -77.7648 303° West  Level Estimated
Thu 01:16:00 PM 42.5273 -77.8388 303° West  Level Estimated
Thu 01:17:00 PM 42.5621 -77.9128 303° West  Level Estimated
Thu 01:18:00 PM 42.5968 -77.9870 302° West  Level Estimated
Thu 01:19:00 PM 42.6315 -78.0612 302° West  Level Estimated
Thu 01:20:00 PM 42.6662 -78.1356 302° West  Level Estimated
Thu 01:21:00 PM 42.7008 -78.2100 302° West  Level Estimated
Thu 01:22:00 PM 42.7353 -78.2844 302° West  Level Estimated
Thu 01:23:00 PM 42.7698 -78.3590 302° West  Level Estimated
Thu 01:24:00 PM 42.8043 -78.4336 302° West  Level Estimated
Thu 01:25:00 PM 42.8387 -78.5084 302° West  Level Estimated
Thu 01:26:00 PM 42.8730 -78.5832 302° West  Level Estimated
Thu 01:27:00 PM 42.9073 -78.6581 302° West  Level Estimated
Thu 01:28:00 PM 42.9404 -78.7306 302° West  Level Estimated
Thu 01:29:00 PM 42.9404 -78.7306 216° Southwest  Level Estimated
Thu 01:30:00 PM 42.9404 -78.7306 216° Southwest  Level Estimated
Thu 01:31:00 PM 42.9404 -78.7306 216° Southwest  Level Estimated
Thu 01:32:00 PM 42.9404 -78.7306 216° Southwest  Level Estimated
Thu 01:33:00 PM 42.9404 -78.7306 216° Southwest  Level Estimated
Thu 01:34:00 PM 42.9404 -78.7306 216° Southwest  Level Estimated
Thu 01:35:00 PM 42.9404 -78.7306 216° Southwest  Level Estimated
Thu 01:36:00 PM 42.9404 -78.7306 216° Southwest  Level Estimated
Thu 01:37:00 PM 42.9404 -78.7306 216° Southwest  Level Estimated
Thu 01:38:00 PM 42.9404 -78.7306 216° Southwest  Level Estimated
Thu 01:39:00 PM 42.9404 -78.7306 216° Southwest  Level Estimated
Thu 01:40:00 PM 42.9404 -78.7306 216° Southwest  Level Estimated
Thu 01:41:00 PM 42.9404 -78.7306 216° Southwest  Level Estimated
Thu 01:42:00 PM 42.9404 -78.7306 216° Southwest  Level Estimated

Login

Don't have an account? Register now (free) for customized features, flight alerts, and more!